PWSweather.com
Personal Weather Stations
Station Observations
KNHRINDG3
Converse Meadow Pond, Rindge, NH 03461

Converse Meadow PondRindge, NH 03461

Lat: 42.74, Lon: -71.98

Elevation: 1060

Station Type: Davis Vantage Pro 2

http://nhwoodworker.com/weather/index.php

High Low Average
Temperature 61.6°F16.4°F 30.5°F-0.8°F 55.6°F13.1°F
Dew Point 59.6°F15.3°F 28.9°F-1.7°F 54.1°F12.3°F
Winds 5.8 mph SW9.3 mph SW Calm Calm 2.0 mph 3.2 mph
Wind Gusts 12.7 mph20.4 mph -- 4.2 mph6.8 mph
Humidity 100% 90% 95%
Pressure 30.07 in1018.30 in 29.52 in999.70 in -
Precipitation 0.45 in11.40 in - -
Hour Temp Dew Point Humidity Winds Wind Gusts Pressure Precip Precip Rate Daily Precip Total
12:00 AM 30.5°F-0.8°C 28.9°F-1.7°C 94% Calm Calm -- 30.07 in1018.3 mb 0.00 in0.0 mm 0.00 in/hr0.0 mm/hr 0.00 in0.0 mm
04:10 AM 42.0°F5.6°C 41.5°F5.3°C 98% Calm Calm -- 29.94 in1013.9 mb 0.00 in0.0 mm 0.00 in/hr0.0 mm/hr 0.00 in0.0 mm
04:20 AM 42.0°F5.6°C 41.5°F5.3°C 98% Calm Calm -- 29.93 in1013.5 mb 0.00 in0.0 mm 0.00 in/hr0.0 mm/hr 0.00 in0.0 mm
04:30 AM 42.0°F5.6°C 41.5°F5.3°C 98% Calm Calm -- 29.92 in1013.2 mb 0.00 in0.0 mm 0.00 in/hr0.0 mm/hr 0.00 in0.0 mm
04:40 AM 42.0°F5.6°C 41.5°F5.3°C 98% Calm Calm -- 29.91 in1012.9 mb 0.00 in0.0 mm 0.00 in/hr0.0 mm/hr 0.00 in0.0 mm
04:50 AM 42.0°F5.6°C 41.5°F5.3°C 98% Calm Calm -- 29.90 in1012.5 mb 0.00 in0.0 mm 0.00 in/hr0.0 mm/hr 0.00 in0.0 mm
05:00 AM 45.7°F7.6°C 45.2°F7.3°C 98% 1.2 mph E1.9 kmh E 3.5 mph5.6 kmh 29.89 in1012.2 mb 0.08 in2.0 mm 0.10 in/hr2.5 mm/hr 0.08 in2.0 mm
05:10 AM 45.6°F7.6°C 45.1°F7.3°C 98% 1.2 mph ESE1.9 kmh ESE 2.3 mph3.7 kmh 29.88 in1011.9 mb 0.00 in0.0 mm 0.00 in/hr0.0 mm/hr 0.08 in2.0 mm
05:20 AM 45.6°F7.6°C 45.0°F7.2°C 98% 2.3 mph E3.7 kmh E 3.5 mph5.6 kmh 29.87 in1011.5 mb 0.02 in0.5 mm 0.12 in/hr3.0 mm/hr 0.10 in2.5 mm
05:30 AM 45.6°F7.6°C 45.1°F7.3°C 98% 2.3 mph SE3.7 kmh SE 6.9 mph11.1 kmh 29.86 in1011.2 mb 0.01 in0.3 mm 0.06 in/hr1.5 mm/hr 0.11 in2.8 mm
05:40 AM 45.5°F7.5°C 45.0°F7.2°C 98% 1.2 mph ENE1.9 kmh ENE 2.3 mph3.7 kmh 29.86 in1011.2 mb 0.02 in0.5 mm 0.12 in/hr3.0 mm/hr 0.13 in3.3 mm
05:50 AM 45.5°F7.5°C 45.0°F7.2°C 98% 1.2 mph E1.9 kmh E 3.5 mph5.6 kmh 29.85 in1010.8 mb 0.02 in0.5 mm 0.12 in/hr3.0 mm/hr 0.15 in3.8 mm
06:00 AM 45.5°F7.5°C 45.0°F7.2°C 98% 1.2 mph SE1.9 kmh SE 2.3 mph3.7 kmh 29.84 in1010.5 mb 0.03 in0.8 mm 0.04 in/hr1.0 mm/hr 0.18 in4.6 mm
06:10 AM 45.3°F7.4°C 44.8°F7.1°C 98% 1.2 mph S1.9 kmh S 1.2 mph1.9 kmh 29.84 in1010.5 mb 0.03 in0.8 mm 0.18 in/hr4.6 mm/hr 0.21 in5.3 mm
06:20 AM 45.4°F7.4°C 44.9°F7.2°C 98% 1.2 mph E1.9 kmh E 2.3 mph3.7 kmh 29.83 in1010.2 mb 0.03 in0.8 mm 0.18 in/hr4.6 mm/hr 0.24 in6.1 mm
06:30 AM 45.5°F7.5°C 45.0°F7.2°C 98% Calm Calm 2.3 mph3.7 kmh 29.82 in1009.8 mb 0.02 in0.5 mm 0.12 in/hr3.0 mm/hr 0.26 in6.6 mm
06:40 AM 45.8°F7.7°C 45.3°F7.4°C 98% 2.3 mph SW3.7 kmh SW 6.9 mph11.1 kmh 29.80 in1009.1 mb 0.01 in0.3 mm 0.06 in/hr1.5 mm/hr 0.27 in6.9 mm
06:50 AM 46.2°F7.9°C 45.6°F7.6°C 98% 1.2 mph SE1.9 kmh SE 2.3 mph3.7 kmh 29.79 in1008.8 mb 0.01 in0.3 mm 0.06 in/hr1.5 mm/hr 0.28 in7.1 mm
07:00 AM 46.4°F8.0°C 45.8°F7.7°C 98% 2.3 mph ESE3.7 kmh ESE 3.5 mph5.6 kmh 29.77 in1008.1 mb 0.01 in0.3 mm 0.01 in/hr0.3 mm/hr 0.29 in7.4 mm
07:10 AM 46.9°F8.3°C 46.7°F8.2°C 99% 1.2 mph SSW1.9 kmh SSW 4.6 mph7.4 kmh 29.76 in1007.8 mb 0.01 in0.3 mm 0.06 in/hr1.5 mm/hr 0.30 in7.6 mm
07:20 AM 47.3°F8.5°C 47.0°F8.3°C 99% 1.2 mph ESE1.9 kmh ESE 2.3 mph3.7 kmh 29.75 in1007.5 mb 0.00 in0.0 mm 0.00 in/hr0.0 mm/hr 0.30 in7.6 mm
07:30 AM 48.0°F8.9°C 47.7°F8.7°C 99% 2.3 mph E3.7 kmh E 4.6 mph7.4 kmh 29.74 in1007.1 mb 0.00 in0.0 mm 0.00 in/hr0.0 mm/hr 0.30 in7.6 mm
07:40 AM 48.8°F9.3°C 48.5°F9.2°C 99% 2.3 mph ESE3.7 kmh ESE 3.5 mph5.6 kmh 29.74 in1007.1 mb 0.01 in0.3 mm 0.06 in/hr1.5 mm/hr 0.31 in7.9 mm
07:50 AM 49.7°F9.8°C 49.5°F9.7°C 99% 1.2 mph SE1.9 kmh SE 3.5 mph5.6 kmh 29.73 in1006.8 mb 0.00 in0.0 mm 0.00 in/hr0.0 mm/hr 0.31 in7.9 mm
08:00 AM 50.4°F10.2°C 50.1°F10.1°C 99% 2.3 mph SSE3.7 kmh SSE 4.6 mph7.4 kmh 29.72 in1006.4 mb 0.01 in0.3 mm 0.01 in/hr0.3 mm/hr 0.32 in8.1 mm
08:10 AM 50.7°F10.4°C 50.5°F10.3°C 99% 1.2 mph E1.9 kmh E 3.5 mph5.6 kmh 29.72 in1006.4 mb 0.02 in0.5 mm 0.12 in/hr3.0 mm/hr 0.33 in8.4 mm
08:20 AM 51.1°F10.6°C 50.8°F10.4°C 99% 2.3 mph E3.7 kmh E 3.5 mph5.6 kmh 29.71 in1006.1 mb 0.01 in0.3 mm 0.06 in/hr1.5 mm/hr 0.34 in8.6 mm
08:30 AM 51.4°F10.8°C 51.1°F10.6°C 99% 1.2 mph W1.9 kmh W 2.3 mph3.7 kmh 29.71 in1006.1 mb 0.01 in0.3 mm 0.06 in/hr1.5 mm/hr 0.35 in8.9 mm
08:40 AM 51.7°F10.9°C 51.4°F10.8°C 99% 1.2 mph S1.9 kmh S 3.5 mph5.6 kmh 29.70 in1005.8 mb 0.01 in0.3 mm 0.06 in/hr1.5 mm/hr 0.35 in8.9 mm
08:50 AM 52.3°F11.3°C 52.0°F11.1°C 99% 1.2 mph SW1.9 kmh SW 4.6 mph7.4 kmh 29.70 in1005.8 mb 0.02 in0.5 mm 0.12 in/hr3.0 mm/hr 0.37 in9.4 mm
09:00 AM 52.8°F11.6°C 52.6°F11.4°C 99% 1.2 mph SE1.9 kmh SE 3.5 mph5.6 kmh 29.70 in1005.8 mb 0.01 in0.3 mm 0.01 in/hr0.3 mm/hr 0.38 in9.7 mm
09:10 AM 53.2°F11.8°C 52.9°F11.6°C 99% 1.2 mph NNW1.9 kmh NNW 1.2 mph1.9 kmh 29.69 in1005.4 mb 0.00 in0.0 mm 0.00 in/hr0.0 mm/hr 0.38 in9.7 mm
09:20 AM 53.2°F11.8°C 52.9°F11.6°C 99% Calm Calm -- 29.69 in1005.4 mb 0.00 in0.0 mm 0.00 in/hr0.0 mm/hr 0.38 in9.7 mm
09:30 AM 55.3°F12.9°C 55.0°F12.8°C 99% 1.2 mph WSW1.9 kmh WSW 3.5 mph5.6 kmh 29.69 in1005.4 mb 0.02 in0.5 mm 0.12 in/hr3.0 mm/hr 0.40 in10.2 mm
09:40 AM 56.3°F13.5°C 56.0°F13.3°C 99% 1.2 mph SSW1.9 kmh SSW 3.5 mph5.6 kmh 29.69 in1005.4 mb 0.00 in0.0 mm 0.00 in/hr0.0 mm/hr 0.40 in10.2 mm
09:50 AM 57.3°F14.1°C 57.1°F13.9°C 99% 2.3 mph S3.7 kmh S 8.1 mph13.0 kmh 29.68 in1005.1 mb 0.00 in0.0 mm 0.00 in/hr0.0 mm/hr 0.40 in10.2 mm
10:00 AM 57.8°F14.3°C 57.8°F14.3°C 100% 3.5 mph SW5.6 kmh SW 5.8 mph9.3 kmh 29.68 in1005.1 mb 0.00 in0.0 mm 0.00 in/hr0.0 mm/hr 0.40 in10.2 mm
10:10 AM 57.8°F14.3°C 57.5°F14.2°C 99% 1.2 mph SSW1.9 kmh SSW 3.5 mph5.6 kmh 29.68 in1005.1 mb 0.00 in0.0 mm 0.00 in/hr0.0 mm/hr 0.40 in10.2 mm
10:20 AM 58.0°F14.4°C 57.7°F14.3°C 99% 1.2 mph SW1.9 kmh SW 2.3 mph3.7 kmh 29.67 in1004.7 mb 0.01 in0.3 mm 0.06 in/hr1.5 mm/hr 0.41 in10.4 mm
10:30 AM 58.1°F14.5°C 57.8°F14.3°C 99% 1.2 mph SE1.9 kmh SE 2.3 mph3.7 kmh 29.66 in1004.4 mb 0.00 in0.0 mm 0.00 in/hr0.0 mm/hr 0.41 in10.4 mm
10:40 AM 58.4°F14.7°C 58.1°F14.5°C 99% 2.3 mph SW3.7 kmh SW 5.8 mph9.3 kmh 29.65 in1004.1 mb 0.00 in0.0 mm 0.00 in/hr0.0 mm/hr 0.41 in10.4 mm
10:50 AM 58.6°F14.8°C 58.4°F14.7°C 99% Calm Calm 3.5 mph5.6 kmh 29.65 in1004.1 mb 0.01 in0.3 mm 0.06 in/hr1.5 mm/hr 0.42 in10.7 mm
11:00 AM 59.0°F15.0°C 58.7°F14.8°C 99% 4.6 mph ESE7.4 kmh ESE 2.3 mph3.7 kmh 29.64 in1003.7 mb 0.00 in0.0 mm 0.00 in/hr0.0 mm/hr 0.42 in10.7 mm
11:40 AM 59.6°F15.3°C 59.4°F15.2°C 99% 4.6 mph SSW7.4 kmh SSW 8.1 mph13.0 kmh 29.63 in1003.4 mb 0.00 in0.0 mm 0.00 in/hr0.0 mm/hr 0.42 in10.7 mm
11:50 AM 59.6°F15.3°C 59.3°F15.2°C 99% 4.6 mph S7.4 kmh S 6.9 mph11.1 kmh 29.63 in1003.4 mb 0.00 in0.0 mm 0.00 in/hr0.0 mm/hr 0.42 in10.7 mm
12:00 PM 59.6°F15.3°C 59.0°F15.0°C 98% 2.3 mph SSW3.7 kmh SSW 2.3 mph3.7 kmh 29.62 in1003.0 mb 0.01 in0.3 mm 0.01 in/hr0.3 mm/hr 0.43 in10.9 mm
12:10 PM 59.6°F15.3°C 59.0°F15.0°C 98% 1.2 mph WSW1.9 kmh WSW 3.5 mph5.6 kmh 29.61 in1002.7 mb 0.00 in0.0 mm 0.00 in/hr0.0 mm/hr 0.43 in10.9 mm
12:30 PM 60.0°F15.6°C 59.1°F15.1°C 97% 2.3 mph SSW3.7 kmh SSW 5.8 mph9.3 kmh 29.60 in1002.4 mb 0.00 in0.0 mm 0.00 in/hr0.0 mm/hr 0.43 in10.9 mm
12:40 PM 59.9°F15.5°C 59.1°F15.1°C 97% 1.2 mph SSW1.9 kmh SSW 6.9 mph11.1 kmh 29.60 in1002.4 mb 0.00 in0.0 mm 0.00 in/hr0.0 mm/hr 0.43 in10.9 mm
12:50 PM 60.0°F15.6°C 59.1°F15.1°C 97% 2.3 mph W3.7 kmh W 8.1 mph13.0 kmh 29.60 in1002.4 mb 0.00 in0.0 mm 0.00 in/hr0.0 mm/hr 0.43 in10.9 mm
01:00 PM 60.1°F15.6°C 59.0°F15.0°C 96% 4.6 mph SSW7.4 kmh SSW 9.2 mph14.8 kmh 29.59 in1002.0 mb 0.00 in0.0 mm 0.00 in/hr0.0 mm/hr 0.43 in10.9 mm
01:10 PM 60.5°F15.8°C 59.4°F15.2°C 96% 3.5 mph SW5.6 kmh SW 3.5 mph5.6 kmh 29.58 in1001.7 mb 0.00 in0.0 mm 0.00 in/hr0.0 mm/hr 0.43 in10.9 mm
01:20 PM 60.8°F16.0°C 59.4°F15.2°C 95% 5.8 mph SW9.3 kmh SW 11.5 mph18.5 kmh 29.58 in1001.7 mb 0.00 in0.0 mm 0.00 in/hr0.0 mm/hr 0.43 in10.9 mm
01:30 PM 61.0°F16.1°C 59.6°F15.3°C 95% 2.3 mph SW3.7 kmh SW 8.1 mph13.0 kmh 29.58 in1001.7 mb 0.00 in0.0 mm 0.00 in/hr0.0 mm/hr 0.43 in10.9 mm
01:40 PM 61.1°F16.2°C 59.4°F15.2°C 94% 2.3 mph S3.7 kmh S 8.1 mph13.0 kmh 29.57 in1001.4 mb 0.00 in0.0 mm 0.00 in/hr0.0 mm/hr 0.43 in10.9 mm
01:50 PM 61.2°F16.2°C 59.5°F15.3°C 94% 1.2 mph SW1.9 kmh SW 8.1 mph13.0 kmh 29.58 in1001.7 mb 0.00 in0.0 mm 0.00 in/hr0.0 mm/hr 0.43 in10.9 mm
02:00 PM 61.3°F16.3°C 59.3°F15.2°C 93% 3.5 mph SW5.6 kmh SW 6.9 mph11.1 kmh 29.57 in1001.4 mb 0.00 in0.0 mm 0.00 in/hr0.0 mm/hr 0.43 in10.9 mm
02:10 PM 61.4°F16.3°C 59.1°F15.1°C 92% 2.3 mph SSW3.7 kmh SSW 6.9 mph11.1 kmh 29.56 in1001.0 mb 0.00 in0.0 mm 0.00 in/hr0.0 mm/hr 0.43 in10.9 mm
02:20 PM 61.5°F16.4°C 59.2°F15.1°C 92% 2.3 mph SSW3.7 kmh SSW 3.5 mph5.6 kmh 29.56 in1001.0 mb 0.00 in0.0 mm 0.00 in/hr0.0 mm/hr 0.43 in10.9 mm
02:30 PM 61.6°F16.4°C 58.9°F14.9°C 91% 2.3 mph SSW3.7 kmh SSW 2.3 mph3.7 kmh 29.55 in1000.7 mb 0.00 in0.0 mm 0.00 in/hr0.0 mm/hr 0.43 in10.9 mm
02:40 PM 61.6°F16.4°C 58.6°F14.8°C 90% 3.5 mph WSW5.6 kmh WSW 5.8 mph9.3 kmh 29.55 in1000.7 mb 0.00 in0.0 mm 0.00 in/hr0.0 mm/hr 0.43 in10.9 mm
02:50 PM 61.3°F16.3°C 58.6°F14.8°C 91% 2.3 mph SW3.7 kmh SW 3.5 mph5.6 kmh 29.54 in1000.3 mb 0.00 in0.0 mm 0.00 in/hr0.0 mm/hr 0.43 in10.9 mm
03:00 PM 61.2°F16.2°C 58.2°F14.6°C 90% 4.6 mph SW7.4 kmh SW 8.1 mph13.0 kmh 29.54 in1000.3 mb 0.00 in0.0 mm 0.00 in/hr0.0 mm/hr 0.43 in10.9 mm
03:10 PM 61.1°F16.2°C 58.1°F14.5°C 90% 2.3 mph SW3.7 kmh SW 4.6 mph7.4 kmh 29.54 in1000.3 mb 0.00 in0.0 mm 0.00 in/hr0.0 mm/hr 0.43 in10.9 mm
03:20 PM 61.1°F16.2°C 58.1°F14.5°C 90% 3.5 mph W5.6 kmh W 3.5 mph5.6 kmh 29.54 in1000.3 mb 0.00 in0.0 mm 0.00 in/hr0.0 mm/hr 0.43 in10.9 mm
03:30 PM 61.1°F16.2°C 58.1°F14.5°C 90% Calm Calm -- 29.53 in1000.0 mb 0.00 in0.0 mm 0.00 in/hr0.0 mm/hr 0.43 in10.9 mm
03:40 PM 61.1°F16.2°C 58.1°F14.5°C 90% Calm Calm -- 29.53 in1000.0 mb 0.00 in0.0 mm 0.00 in/hr0.0 mm/hr 0.43 in10.9 mm
03:50 PM 61.1°F16.2°C 58.1°F14.5°C 90% Calm Calm -- 29.53 in1000.0 mb 0.00 in0.0 mm 0.00 in/hr0.0 mm/hr 0.43 in10.9 mm
04:00 PM 61.1°F16.2°C 58.1°F14.5°C 90% Calm Calm -- 29.52 in999.7 mb 0.00 in0.0 mm 0.00 in/hr0.0 mm/hr 0.43 in10.9 mm
04:10 PM 61.1°F16.2°C 58.1°F14.5°C 90% Calm Calm -- 29.54 in1000.3 mb 0.00 in0.0 mm 0.00 in/hr0.0 mm/hr 0.43 in10.9 mm
04:20 PM 61.1°F16.2°C 58.1°F14.5°C 90% Calm Calm -- 29.54 in1000.3 mb 0.00 in0.0 mm 0.00 in/hr0.0 mm/hr 0.43 in10.9 mm
04:30 PM 61.1°F16.2°C 58.1°F14.5°C 90% Calm Calm -- 29.54 in1000.3 mb 0.00 in0.0 mm 0.00 in/hr0.0 mm/hr 0.43 in10.9 mm
04:40 PM 61.1°F16.2°C 58.1°F14.5°C 90% Calm Calm -- 29.54 in1000.3 mb 0.00 in0.0 mm 0.00 in/hr0.0 mm/hr 0.43 in10.9 mm
04:50 PM 60.3°F15.7°C 57.4°F14.1°C 90% 1.2 mph NW1.9 kmh NW 3.5 mph5.6 kmh 29.55 in1000.7 mb 0.00 in0.0 mm 0.00 in/hr0.0 mm/hr 0.43 in10.9 mm
05:00 PM 60.3°F15.7°C 57.4°F14.1°C 90% 1.2 mph S1.9 kmh S 9.2 mph14.8 kmh 29.55 in1000.7 mb 0.00 in0.0 mm 0.00 in/hr0.0 mm/hr 0.43 in10.9 mm
05:10 PM 60.3°F15.7°C 57.4°F14.1°C 90% 2.3 mph NW3.7 kmh NW 3.5 mph5.6 kmh 29.56 in1001.0 mb 0.00 in0.0 mm 0.00 in/hr0.0 mm/hr 0.43 in10.9 mm
05:20 PM 60.2°F15.7°C 57.3°F14.1°C 90% 2.3 mph SW3.7 kmh SW 9.2 mph14.8 kmh 29.57 in1001.4 mb 0.00 in0.0 mm 0.00 in/hr0.0 mm/hr 0.43 in10.9 mm
05:30 PM 60.1°F15.6°C 57.5°F14.2°C 91% 2.3 mph S3.7 kmh S 5.8 mph9.3 kmh 29.57 in1001.4 mb 0.00 in0.0 mm 0.00 in/hr0.0 mm/hr 0.43 in10.9 mm
05:40 PM 60.0°F15.6°C 57.4°F14.1°C 91% 4.6 mph SSW7.4 kmh SSW 6.9 mph11.1 kmh 29.58 in1001.7 mb 0.00 in0.0 mm 0.00 in/hr0.0 mm/hr 0.43 in10.9 mm
05:50 PM 60.3°F15.7°C 57.6°F14.2°C 91% 1.2 mph W1.9 kmh W 1.2 mph1.9 kmh 29.59 in1002.0 mb 0.00 in0.0 mm 0.00 in/hr0.0 mm/hr 0.43 in10.9 mm
06:00 PM 60.2°F15.7°C 57.6°F14.2°C 91% 3.5 mph SW5.6 kmh SW 4.6 mph7.4 kmh 29.59 in1002.0 mb 0.00 in0.0 mm 0.00 in/hr0.0 mm/hr 0.43 in10.9 mm
06:10 PM 60.0°F15.6°C 57.4°F14.1°C 91% 4.6 mph SW7.4 kmh SW 5.8 mph9.3 kmh 29.59 in1002.0 mb 0.00 in0.0 mm 0.00 in/hr0.0 mm/hr 0.43 in10.9 mm
06:20 PM 59.8°F15.4°C 57.2°F14.0°C 91% 1.2 mph SSW1.9 kmh SSW 3.5 mph5.6 kmh 29.59 in1002.0 mb 0.00 in0.0 mm 0.00 in/hr0.0 mm/hr 0.43 in10.9 mm
06:30 PM 59.6°F15.3°C 57.3°F14.1°C 92% 4.6 mph SSW7.4 kmh SSW 8.1 mph13.0 kmh 29.59 in1002.0 mb 0.00 in0.0 mm 0.00 in/hr0.0 mm/hr 0.43 in10.9 mm
06:40 PM 59.4°F15.2°C 57.1°F13.9°C 92% 4.6 mph SSW7.4 kmh SSW 6.9 mph11.1 kmh 29.59 in1002.0 mb 0.00 in0.0 mm 0.00 in/hr0.0 mm/hr 0.43 in10.9 mm
06:50 PM 59.2°F15.1°C 56.9°F13.8°C 92% 3.5 mph SSW5.6 kmh SSW 3.5 mph5.6 kmh 29.59 in1002.0 mb 0.00 in0.0 mm 0.00 in/hr0.0 mm/hr 0.43 in10.9 mm
07:00 PM 59.1°F15.1°C 56.8°F13.8°C 92% 2.3 mph SSW3.7 kmh SSW 6.9 mph11.1 kmh 29.60 in1002.4 mb 0.00 in0.0 mm 0.00 in/hr0.0 mm/hr 0.43 in10.9 mm
07:10 PM 59.2°F15.1°C 57.2°F14.0°C 93% 3.5 mph SSW5.6 kmh SSW 6.9 mph11.1 kmh 29.59 in1002.0 mb 0.00 in0.0 mm 0.00 in/hr0.0 mm/hr 0.43 in10.9 mm
07:20 PM 59.1°F15.1°C 57.1°F13.9°C 93% 4.6 mph WSW7.4 kmh WSW 5.8 mph9.3 kmh 29.60 in1002.4 mb 0.00 in0.0 mm 0.00 in/hr0.0 mm/hr 0.43 in10.9 mm
07:30 PM 58.9°F14.9°C 56.6°F13.7°C 92% 2.3 mph S3.7 kmh S 6.9 mph11.1 kmh 29.61 in1002.7 mb 0.00 in0.0 mm 0.00 in/hr0.0 mm/hr 0.43 in10.9 mm
07:40 PM 58.6°F14.8°C 56.6°F13.7°C 93% 2.3 mph WSW3.7 kmh WSW 5.8 mph9.3 kmh 29.61 in1002.7 mb 0.00 in0.0 mm 0.00 in/hr0.0 mm/hr 0.43 in10.9 mm
07:50 PM 58.4°F14.7°C 56.4°F13.6°C 93% 3.5 mph WSW5.6 kmh WSW 4.6 mph7.4 kmh 29.62 in1003.0 mb 0.00 in0.0 mm 0.00 in/hr0.0 mm/hr 0.43 in10.9 mm
08:00 PM 58.4°F14.7°C 56.4°F13.6°C 93% 1.2 mph SW1.9 kmh SW 3.5 mph5.6 kmh 29.62 in1003.0 mb 0.00 in0.0 mm 0.00 in/hr0.0 mm/hr 0.43 in10.9 mm
08:10 PM 58.2°F14.6°C 55.9°F13.3°C 92% 2.3 mph WNW3.7 kmh WNW 3.5 mph5.6 kmh 29.62 in1003.0 mb 0.00 in0.0 mm 0.00 in/hr0.0 mm/hr 0.43 in10.9 mm
08:20 PM 58.2°F14.6°C 55.9°F13.3°C 92% 2.3 mph W3.7 kmh W 5.8 mph9.3 kmh 29.62 in1003.0 mb 0.00 in0.0 mm 0.00 in/hr0.0 mm/hr 0.43 in10.9 mm
08:30 PM 58.1°F14.5°C 56.1°F13.4°C 93% 3.5 mph W5.6 kmh W 12.7 mph20.4 kmh 29.62 in1003.0 mb 0.00 in0.0 mm 0.00 in/hr0.0 mm/hr 0.43 in10.9 mm
08:40 PM 58.1°F14.5°C 55.8°F13.2°C 92% 3.5 mph SW5.6 kmh SW 4.6 mph7.4 kmh 29.63 in1003.4 mb 0.00 in0.0 mm 0.00 in/hr0.0 mm/hr 0.43 in10.9 mm
08:50 PM 58.0°F14.4°C 55.7°F13.2°C 92% 3.5 mph WSW5.6 kmh WSW 6.9 mph11.1 kmh 29.63 in1003.4 mb 0.00 in0.0 mm 0.00 in/hr0.0 mm/hr 0.43 in10.9 mm
09:00 PM 57.8°F14.3°C 55.8°F13.2°C 93% 2.3 mph WSW3.7 kmh WSW 4.6 mph7.4 kmh 29.63 in1003.4 mb 0.00 in0.0 mm 0.00 in/hr0.0 mm/hr 0.43 in10.9 mm
09:10 PM 57.6°F14.2°C 55.6°F13.1°C 93% 1.2 mph SW1.9 kmh SW 6.9 mph11.1 kmh 29.64 in1003.7 mb 0.00 in0.0 mm 0.00 in/hr0.0 mm/hr 0.43 in10.9 mm
09:20 PM 57.7°F14.3°C 55.7°F13.2°C 93% 1.2 mph NW1.9 kmh NW 2.3 mph3.7 kmh 29.64 in1003.7 mb 0.00 in0.0 mm 0.00 in/hr0.0 mm/hr 0.43 in10.9 mm
09:30 PM 57.6°F14.2°C 55.3°F12.9°C 92% 3.5 mph SW5.6 kmh SW 4.6 mph7.4 kmh 29.64 in1003.7 mb 0.00 in0.0 mm 0.00 in/hr0.0 mm/hr 0.43 in10.9 mm
09:40 PM 57.6°F14.2°C 55.3°F12.9°C 92% 2.3 mph SW3.7 kmh SW 6.9 mph11.1 kmh 29.64 in1003.7 mb 0.00 in0.0 mm 0.00 in/hr0.0 mm/hr 0.43 in10.9 mm
09:50 PM 57.5°F14.2°C 55.2°F12.9°C 92% 2.3 mph WSW3.7 kmh WSW 4.6 mph7.4 kmh 29.65 in1004.1 mb 0.00 in0.0 mm 0.00 in/hr0.0 mm/hr 0.43 in10.9 mm
10:00 PM 57.4°F14.1°C 55.1°F12.8°C 92% 2.3 mph SW3.7 kmh SW 2.3 mph3.7 kmh 29.65 in1004.1 mb 0.00 in0.0 mm 0.00 in/hr0.0 mm/hr 0.43 in10.9 mm
10:10 PM 57.4°F14.1°C 55.1°F12.8°C 92% 3.5 mph SSW5.6 kmh SSW 8.1 mph13.0 kmh 29.65 in1004.1 mb 0.00 in0.0 mm 0.00 in/hr0.0 mm/hr 0.43 in10.9 mm
10:20 PM 57.4°F14.1°C 55.1°F12.8°C 92% 2.3 mph S3.7 kmh S 3.5 mph5.6 kmh 29.65 in1004.1 mb 0.00 in0.0 mm 0.00 in/hr0.0 mm/hr 0.43 in10.9 mm
10:30 PM 57.4°F14.1°C 55.1°F12.8°C 92% 2.3 mph SW3.7 kmh SW 4.6 mph7.4 kmh 29.65 in1004.1 mb 0.00 in0.0 mm 0.00 in/hr0.0 mm/hr 0.43 in10.9 mm
10:40 PM 57.4°F14.1°C 55.1°F12.8°C 92% 2.3 mph SSW3.7 kmh SSW 4.6 mph7.4 kmh 29.65 in1004.1 mb 0.00 in0.0 mm 0.00 in/hr0.0 mm/hr 0.43 in10.9 mm
10:50 PM 57.2°F14.0°C 54.9°F12.7°C 92% 1.2 mph NW1.9 kmh NW 3.5 mph5.6 kmh 29.66 in1004.4 mb 0.00 in0.0 mm 0.00 in/hr0.0 mm/hr 0.43 in10.9 mm
11:00 PM 57.1°F13.9°C 54.8°F12.7°C 92% 1.2 mph WSW1.9 kmh WSW 3.5 mph5.6 kmh 29.66 in1004.4 mb 0.00 in0.0 mm 0.00 in/hr0.0 mm/hr 0.43 in10.9 mm
11:10 PM 56.9°F13.8°C 54.6°F12.6°C 92% 2.3 mph SW3.7 kmh SW 6.9 mph11.1 kmh 29.66 in1004.4 mb 0.00 in0.0 mm 0.00 in/hr0.0 mm/hr 0.43 in10.9 mm
11:20 PM 56.5°F13.6°C 54.5°F12.5°C 93% Calm Calm 1.2 mph1.9 kmh 29.66 in1004.4 mb 0.00 in0.0 mm 0.00 in/hr0.0 mm/hr 0.43 in10.9 mm
11:30 PM 56.6°F13.7°C 54.6°F12.6°C 93% 2.3 mph SW3.7 kmh SW 3.5 mph5.6 kmh 29.67 in1004.7 mb 0.00 in0.0 mm 0.00 in/hr0.0 mm/hr 0.43 in10.9 mm
11:40 PM 56.4°F13.6°C 54.4°F12.4°C 93% 1.2 mph SW1.9 kmh SW 6.9 mph11.1 kmh 29.67 in1004.7 mb 0.00 in0.0 mm 0.00 in/hr0.0 mm/hr 0.43 in10.9 mm
11:50 PM 56.4°F13.6°C 54.4°F12.4°C 93% 2.3 mph WSW3.7 kmh WSW 3.5 mph5.6 kmh 29.67 in1004.7 mb 0.00 in0.0 mm 0.00 in/hr0.0 mm/hr 0.43 in10.9 mm